sensor_id;sensor_type;location;lat;lon;timestamp;P1;durP1;ratioP1;P2;durP2;ratioP2
58681;SDS011;44460;40.162;18.294;2023-04-01T00:00:22;46.72;;;7.82;;
58681;SDS011;44460;40.162;18.294;2023-04-01T00:02:48;50.78;;;7.30;;
58681;SDS011;44460;40.162;18.294;2023-04-01T00:05:13;51.03;;;7.88;;
58681;SDS011;44460;40.162;18.294;2023-04-01T00:07:39;39.60;;;6.80;;
58681;SDS011;44460;40.162;18.294;2023-04-01T00:10:09;62.38;;;8.02;;
58681;SDS011;44460;40.162;18.294;2023-04-01T00:12:36;49.85;;;7.35;;
58681;SDS011;44460;40.162;18.294;2023-04-01T00:15:02;38.03;;;7.13;;
58681;SDS011;44460;40.162;18.294;2023-04-01T00:17:27;36.72;;;6.78;;
58681;SDS011;44460;40.162;18.294;2023-04-01T00:19:55;38.30;;;7.10;;
58681;SDS011;44460;40.162;18.294;2023-04-01T00:22:21;50.88;;;8.98;;
58681;SDS011;44460;40.162;18.294;2023-04-01T00:24:47;45.22;;;6.25;;
58681;SDS011;44460;40.162;18.294;2023-04-01T00:27:14;46.70;;;7.43;;
58681;SDS011;44460;40.162;18.294;2023-04-01T00:29:43;47.30;;;7.35;;
58681;SDS011;44460;40.162;18.294;2023-04-01T00:32:09;48.70;;;7.30;;
58681;SDS011;44460;40.162;18.294;2023-04-01T00:34:35;44.70;;;6.60;;
58681;SDS011;44460;40.162;18.294;2023-04-01T00:37:00;58.08;;;8.63;;
58681;SDS011;44460;40.162;18.294;2023-04-01T00:39:28;45.80;;;7.78;;
58681;SDS011;44460;40.162;18.294;2023-04-01T00:41:53;57.25;;;7.90;;
58681;SDS011;44460;40.162;18.294;2023-04-01T00:44:20;51.58;;;7.72;;
58681;SDS011;44460;40.162;18.294;2023-04-01T00:46:46;44.55;;;6.50;;
58681;SDS011;44460;40.162;18.294;2023-04-01T00:49:12;58.95;;;7.88;;
58681;SDS011;44460;40.162;18.294;2023-04-01T00:51:38;39.47;;;6.95;;
58681;SDS011;44460;40.162;18.294;2023-04-01T00:54:04;56.95;;;7.60;;
58681;SDS011;44460;40.162;18.294;2023-04-01T00:56:37;39.65;;;6.50;;
58681;SDS011;44460;40.162;18.294;2023-04-01T00:59:10;54.40;;;7.65;;
58681;SDS011;44460;40.162;18.294;2023-04-01T01:01:39;56.72;;;8.50;;
58681;SDS011;44460;40.162;18.294;2023-04-01T01:04:05;43.42;;;7.55;;
58681;SDS011;44460;40.162;18.294;2023-04-01T01:17:07;50.08;;;7.57;;
58681;SDS011;44460;40.162;18.294;2023-04-01T01:22:40;51.65;;;8.00;;
58681;SDS011;44460;40.162;18.294;2023-04-01T01:27:29;46.20;;;8.02;;
58681;SDS011;44460;40.162;18.294;2023-04-01T01:37:47;44.72;;;7.80;;
58681;SDS011;44460;40.162;18.294;2023-04-01T01:40:15;43.50;;;6.95;;
58681;SDS011;44460;40.162;18.294;2023-04-01T01:42:43;47.05;;;7.20;;
58681;SDS011;44460;40.162;18.294;2023-04-01T01:45:10;43.08;;;7.75;;
58681;SDS011;44460;40.162;18.294;2023-04-01T01:47:36;60.10;;;7.93;;
58681;SDS011;44460;40.162;18.294;2023-04-01T01:50:04;34.72;;;6.82;;
58681;SDS011;44460;40.162;18.294;2023-04-01T01:52:30;47.92;;;8.77;;
58681;SDS011;44460;40.162;18.294;2023-04-01T01:54:56;50.33;;;7.57;;
58681;SDS011;44460;40.162;18.294;2023-04-01T01:57:26;51.05;;;9.25;;
58681;SDS011;44460;40.162;18.294;2023-04-01T01:59:58;50.88;;;7.53;;
58681;SDS011;44460;40.162;18.294;2023-04-01T02:02:27;44.00;;;7.35;;
58681;SDS011;44460;40.162;18.294;2023-04-01T02:04:56;39.00;;;7.55;;
58681;SDS011;44460;40.162;18.294;2023-04-01T02:07:23;53.38;;;7.97;;
58681;SDS011;44460;40.162;18.294;2023-04-01T02:09:51;47.25;;;8.30;;
58681;SDS011;44460;40.162;18.294;2023-04-01T02:12:17;48.15;;;6.95;;
58681;SDS011;44460;40.162;18.294;2023-04-01T02:14:49;48.30;;;7.80;;
58681;SDS011;44460;40.162;18.294;2023-04-01T02:17:18;48.50;;;8.63;;
58681;SDS011;44460;40.162;18.294;2023-04-01T02:19:54;54.63;;;7.00;;
58681;SDS011;44460;40.162;18.294;2023-04-01T02:22:24;44.22;;;7.30;;
58681;SDS011;44460;40.162;18.294;2023-04-01T02:24:50;44.80;;;8.27;;
58681;SDS011;44460;40.162;18.294;2023-04-01T02:27:17;38.40;;;7.22;;
58681;SDS011;44460;40.162;18.294;2023-04-01T02:29:46;54.38;;;8.02;;
58681;SDS011;44460;40.162;18.294;2023-04-01T02:32:12;61.28;;;8.13;;
58681;SDS011;44460;40.162;18.294;2023-04-01T02:34:38;50.38;;;8.98;;
58681;SDS011;44460;40.162;18.294;2023-04-01T02:37:04;42.22;;;7.30;;
58681;SDS011;44460;40.162;18.294;2023-04-01T02:39:30;48.53;;;7.72;;
58681;SDS011;44460;40.162;18.294;2023-04-01T02:41:56;68.43;;;9.77;;
58681;SDS011;44460;40.162;18.294;2023-04-01T02:44:21;39.78;;;7.97;;
58681;SDS011;44460;40.162;18.294;2023-04-01T02:46:47;53.65;;;7.70;;
58681;SDS011;44460;40.162;18.294;2023-04-01T02:49:13;43.88;;;6.90;;
58681;SDS011;44460;40.162;18.294;2023-04-01T02:51:38;54.60;;;8.77;;
58681;SDS011;44460;40.162;18.294;2023-04-01T02:54:04;63.03;;;8.65;;
58681;SDS011;44460;40.162;18.294;2023-04-01T02:56:29;49.10;;;7.60;;
58681;SDS011;44460;40.162;18.294;2023-04-01T02:58:55;47.00;;;7.40;;
58681;SDS011;44460;40.162;18.294;2023-04-01T03:01:20;37.95;;;6.53;;
58681;SDS011;44460;40.162;18.294;2023-04-01T03:03:46;56.45;;;7.82;;
58681;SDS011;44460;40.162;18.294;2023-04-01T03:06:13;57.80;;;7.43;;
58681;SDS011;44460;40.162;18.294;2023-04-01T03:08:38;46.15;;;7.88;;
58681;SDS011;44460;40.162;18.294;2023-04-01T03:11:06;56.22;;;7.40;;
58681;SDS011;44460;40.162;18.294;2023-04-01T03:13:35;55.78;;;9.38;;
58681;SDS011;44460;40.162;18.294;2023-04-01T03:16:00;61.85;;;9.48;;
58681;SDS011;44460;40.162;18.294;2023-04-01T03:18:26;42.92;;;7.57;;
58681;SDS011;44460;40.162;18.294;2023-04-01T03:20:51;63.72;;;9.38;;
58681;SDS011;44460;40.162;18.294;2023-04-01T03:23:17;48.85;;;7.53;;
58681;SDS011;44460;40.162;18.294;2023-04-01T03:25:44;48.93;;;7.83;;
58681;SDS011;44460;40.162;18.294;2023-04-01T03:28:10;50.75;;;8.95;;
58681;SDS011;44460;40.162;18.294;2023-04-01T03:30:36;41.90;;;6.63;;
58681;SDS011;44460;40.162;18.294;2023-04-01T03:33:01;62.05;;;9.23;;
58681;SDS011;44460;40.162;18.294;2023-04-01T03:35:27;51.28;;;8.80;;
58681;SDS011;44460;40.162;18.294;2023-04-01T03:37:53;54.58;;;9.38;;
58681;SDS011;44460;40.162;18.294;2023-04-01T03:40:18;49.42;;;6.78;;
58681;SDS011;44460;40.162;18.294;2023-04-01T03:42:44;50.28;;;7.93;;
58681;SDS011;44460;40.162;18.294;2023-04-01T03:45:13;55.30;;;7.75;;
58681;SDS011;44460;40.162;18.294;2023-04-01T03:47:39;59.67;;;7.47;;
58681;SDS011;44460;40.162;18.294;2023-04-01T03:50:05;55.90;;;9.02;;
58681;SDS011;44460;40.162;18.294;2023-04-01T03:52:31;54.40;;;8.07;;
58681;SDS011;44460;40.162;18.294;2023-04-01T03:54:56;51.78;;;8.68;;
58681;SDS011;44460;40.162;18.294;2023-04-01T03:57:22;47.75;;;8.23;;
58681;SDS011;44460;40.162;18.294;2023-04-01T03:59:48;37.97;;;6.65;;
58681;SDS011;44460;40.162;18.294;2023-04-01T04:02:13;57.40;;;8.73;;
58681;SDS011;44460;40.162;18.294;2023-04-01T04:04:39;47.60;;;8.02;;
58681;SDS011;44460;40.162;18.294;2023-04-01T04:07:05;40.78;;;8.02;;
58681;SDS011;44460;40.162;18.294;2023-04-01T04:09:47;61.08;;;8.95;;
58681;SDS011;44460;40.162;18.294;2023-04-01T04:12:13;57.30;;;7.05;;
58681;SDS011;44460;40.162;18.294;2023-04-01T04:14:38;55.30;;;7.30;;
58681;SDS011;44460;40.162;18.294;2023-04-01T04:17:09;48.92;;;8.90;;
58681;SDS011;44460;40.162;18.294;2023-04-01T04:19:39;53.78;;;8.43;;
58681;SDS011;44460;40.162;18.294;2023-04-01T04:22:04;47.97;;;8.60;;
58681;SDS011;44460;40.162;18.294;2023-04-01T04:24:29;41.33;;;8.07;;
58681;SDS011;44460;40.162;18.294;2023-04-01T04:27:05;46.58;;;6.25;;
58681;SDS011;44460;40.162;18.294;2023-04-01T04:29:31;46.38;;;7.43;;
58681;SDS011;44460;40.162;18.294;2023-04-01T04:31:56;48.17;;;10.43;;
58681;SDS011;44460;40.162;18.294;2023-04-01T04:34:22;46.70;;;8.18;;
58681;SDS011;44460;40.162;18.294;2023-04-01T04:36:48;50.40;;;8.60;;
58681;SDS011;44460;40.162;18.294;2023-04-01T04:39:14;45.47;;;7.45;;
58681;SDS011;44460;40.162;18.294;2023-04-01T04:41:41;42.28;;;9.27;;
58681;SDS011;44460;40.162;18.294;2023-04-01T04:44:10;57.10;;;8.90;;
58681;SDS011;44460;40.162;18.294;2023-04-01T04:46:38;48.65;;;6.90;;
58681;SDS011;44460;40.162;18.294;2023-04-01T04:49:13;45.08;;;10.05;;
58681;SDS011;44460;40.162;18.294;2023-04-01T04:51:38;44.67;;;8.80;;
58681;SDS011;44460;40.162;18.294;2023-04-01T04:54:04;42.95;;;8.43;;
58681;SDS011;44460;40.162;18.294;2023-04-01T04:56:52;51.00;;;7.88;;
58681;SDS011;44460;40.162;18.294;2023-04-01T04:59:19;55.40;;;8.10;;
58681;SDS011;44460;40.162;18.294;2023-04-01T05:01:51;52.67;;;8.25;;
58681;SDS011;44460;40.162;18.294;2023-04-01T05:04:16;52.97;;;8.57;;
58681;SDS011;44460;40.162;18.294;2023-04-01T05:06:42;45.70;;;8.00;;
58681;SDS011;44460;40.162;18.294;2023-04-01T05:09:08;56.33;;;8.45;;
58681;SDS011;44460;40.162;18.294;2023-04-01T05:11:33;55.50;;;9.85;;
58681;SDS011;44460;40.162;18.294;2023-04-01T05:14:03;45.53;;;8.73;;
58681;SDS011;44460;40.162;18.294;2023-04-01T05:16:31;57.55;;;9.63;;
58681;SDS011;44460;40.162;18.294;2023-04-01T05:18:58;55.83;;;8.50;;
58681;SDS011;44460;40.162;18.294;2023-04-01T05:21:23;53.28;;;7.38;;
58681;SDS011;44460;40.162;18.294;2023-04-01T05:23:49;51.47;;;8.20;;
58681;SDS011;44460;40.162;18.294;2023-04-01T05:26:15;49.20;;;8.25;;
58681;SDS011;44460;40.162;18.294;2023-04-01T05:28:41;52.95;;;9.82;;
58681;SDS011;44460;40.162;18.294;2023-04-01T05:31:07;51.13;;;8.65;;
58681;SDS011;44460;40.162;18.294;2023-04-01T05:33:41;54.97;;;8.82;;
58681;SDS011;44460;40.162;18.294;2023-04-01T05:36:11;52.00;;;8.02;;
58681;SDS011;44460;40.162;18.294;2023-04-01T05:38:37;37.38;;;8.07;;
58681;SDS011;44460;40.162;18.294;2023-04-01T05:41:04;60.03;;;9.30;;
58681;SDS011;44460;40.162;18.294;2023-04-01T05:43:37;51.95;;;7.63;;
58681;SDS011;44460;40.162;18.294;2023-04-01T05:46:23;52.47;;;7.80;;
58681;SDS011;44460;40.162;18.294;2023-04-01T05:49:02;50.63;;;7.55;;
58681;SDS011;44460;40.162;18.294;2023-04-01T05:51:27;45.90;;;8.48;;
58681;SDS011;44460;40.162;18.294;2023-04-01T05:53:53;54.00;;;6.82;;
58681;SDS011;44460;40.162;18.294;2023-04-01T05:56:18;56.95;;;9.25;;
58681;SDS011;44460;40.162;18.294;2023-04-01T05:58:50;55.65;;;10.48;;
58681;SDS011;44460;40.162;18.294;2023-04-01T06:03:41;71.63;;;9.98;;
58681;SDS011;44460;40.162;18.294;2023-04-01T06:06:14;62.25;;;9.25;;
58681;SDS011;44460;40.162;18.294;2023-04-01T06:08:41;51.83;;;8.52;;
58681;SDS011;44460;40.162;18.294;2023-04-01T06:23:53;51.42;;;8.13;;
58681;SDS011;44460;40.162;18.294;2023-04-01T06:33:55;38.88;;;7.88;;
58681;SDS011;44460;40.162;18.294;2023-04-01T06:39:04;35.72;;;6.95;;
58681;SDS011;44460;40.162;18.294;2023-04-01T06:41:34;28.98;;;7.30;;
58681;SDS011;44460;40.162;18.294;2023-04-01T06:44:21;32.30;;;5.65;;
58681;SDS011;44460;40.162;18.294;2023-04-01T06:47:23;26.75;;;7.00;;
58681;SDS011;44460;40.162;18.294;2023-04-01T06:50:26;25.70;;;6.40;;
58681;SDS011;44460;40.162;18.294;2023-04-01T06:55:59;23.45;;;5.60;;
58681;SDS011;44460;40.162;18.294;2023-04-01T06:58:42;26.50;;;5.88;;
58681;SDS011;44460;40.162;18.294;2023-04-01T07:01:12;21.45;;;5.55;;
58681;SDS011;44460;40.162;18.294;2023-04-01T07:03:53;26.88;;;5.10;;
58681;SDS011;44460;40.162;18.294;2023-04-01T07:09:10;19.17;;;5.07;;
58681;SDS011;44460;40.162;18.294;2023-04-01T07:11:59;18.90;;;5.70;;
58681;SDS011;44460;40.162;18.294;2023-04-01T07:14:44;21.33;;;5.65;;
58681;SDS011;44460;40.162;18.294;2023-04-01T07:19:45;23.13;;;4.93;;
58681;SDS011;44460;40.162;18.294;2023-04-01T07:25:01;37.88;;;14.00;;
58681;SDS011;44460;40.162;18.294;2023-04-01T07:27:27;20.70;;;5.68;;
58681;SDS011;44460;40.162;18.294;2023-04-01T07:29:55;19.48;;;6.00;;
58681;SDS011;44460;40.162;18.294;2023-04-01T07:37:22;23.02;;;5.10;;
58681;SDS011;44460;40.162;18.294;2023-04-01T07:42:42;20.88;;;5.22;;
58681;SDS011;44460;40.162;18.294;2023-04-01T07:45:29;24.27;;;5.68;;
58681;SDS011;44460;40.162;18.294;2023-04-01T07:50:31;16.92;;;4.32;;
58681;SDS011;44460;40.162;18.294;2023-04-01T07:53:04;23.40;;;5.20;;
58681;SDS011;44460;40.162;18.294;2023-04-01T08:03:38;20.63;;;5.03;;
58681;SDS011;44460;40.162;18.294;2023-04-01T08:14:59;19.63;;;5.53;;
58681;SDS011;44460;40.162;18.294;2023-04-01T08:18:03;20.98;;;4.97;;
58681;SDS011;44460;40.162;18.294;2023-04-01T08:20:34;17.42;;;4.75;;
58681;SDS011;44460;40.162;18.294;2023-04-01T08:23:05;23.20;;;5.00;;
58681;SDS011;44460;40.162;18.294;2023-04-01T08:25:37;25.33;;;6.90;;
58681;SDS011;44460;40.162;18.294;2023-04-01T08:33:06;33.53;;;5.90;;
58681;SDS011;44460;40.162;18.294;2023-04-01T08:38:04;17.40;;;5.13;;
58681;SDS011;44460;40.162;18.294;2023-04-01T08:40:37;27.85;;;6.15;;
58681;SDS011;44460;40.162;18.294;2023-04-01T08:51:13;23.17;;;5.38;;
58681;SDS011;44460;40.162;18.294;2023-04-01T08:53:49;19.55;;;5.00;;
58681;SDS011;44460;40.162;18.294;2023-04-01T09:01:58;22.65;;;5.65;;
58681;SDS011;44460;40.162;18.294;2023-04-01T09:12:37;23.40;;;5.18;;
58681;SDS011;44460;40.162;18.294;2023-04-01T09:15:23;18.48;;;4.50;;
58681;SDS011;44460;40.162;18.294;2023-04-01T09:18:09;19.30;;;4.57;;
58681;SDS011;44460;40.162;18.294;2023-04-01T09:29:17;23.55;;;5.82;;
58681;SDS011;44460;40.162;18.294;2023-04-01T09:39:34;26.08;;;6.10;;
58681;SDS011;44460;40.162;18.294;2023-04-01T09:44:48;21.38;;;5.57;;
58681;SDS011;44460;40.162;18.294;2023-04-01T09:50:03;22.25;;;6.00;;
58681;SDS011;44460;40.162;18.294;2023-04-01T10:03:56;18.35;;;5.35;;
58681;SDS011;44460;40.162;18.294;2023-04-01T10:32:31;18.52;;;5.10;;
58681;SDS011;44460;40.162;18.294;2023-04-01T10:40:38;19.02;;;5.18;;
58681;SDS011;44460;40.162;18.294;2023-04-01T10:56:49;25.33;;;4.95;;
58681;SDS011;44460;40.162;18.294;2023-04-01T11:03:04;19.58;;;5.60;;
58681;SDS011;44460;40.162;18.294;2023-04-01T11:29:57;21.95;;;5.22;;
58681;SDS011;44460;40.162;18.294;2023-04-01T11:38:15;21.65;;;5.28;;
58681;SDS011;44460;40.162;18.294;2023-04-01T11:43:34;16.27;;;5.15;;
58681;SDS011;44460;40.162;18.294;2023-04-01T11:46:21;26.40;;;4.70;;
58681;SDS011;44460;40.162;18.294;2023-04-01T11:49:14;12.82;;;4.15;;
58681;SDS011;44460;40.162;18.294;2023-04-01T11:52:43;21.23;;;4.95;;
58681;SDS011;44460;40.162;18.294;2023-04-01T11:57:12;17.67;;;4.18;;
58681;SDS011;44460;40.162;18.294;2023-04-01T11:59:43;15.73;;;4.13;;
58681;SDS011;44460;40.162;18.294;2023-04-01T12:35:47;18.13;;;4.40;;
58681;SDS011;44460;40.162;18.294;2023-04-01T12:53:47;15.40;;;4.15;;
58681;SDS011;44460;40.162;18.294;2023-04-01T12:56:32;17.65;;;5.10;;
58681;SDS011;44460;40.162;18.294;2023-04-01T13:22:37;20.50;;;5.55;;
58681;SDS011;44460;40.162;18.294;2023-04-01T13:25:13;19.73;;;4.53;;
58681;SDS011;44460;40.162;18.294;2023-04-01T13:27:46;13.45;;;4.65;;
58681;SDS011;44460;40.162;18.294;2023-04-01T13:30:24;19.40;;;4.70;;
58681;SDS011;44460;40.162;18.294;2023-04-01T13:32:59;14.93;;;4.00;;
58681;SDS011;44460;40.162;18.294;2023-04-01T13:43:19;27.77;;;4.70;;
58681;SDS011;44460;40.162;18.294;2023-04-01T13:54:07;16.65;;;4.15;;
58681;SDS011;44460;40.162;18.294;2023-04-01T14:17:13;23.50;;;4.93;;
58681;SDS011;44460;40.162;18.294;2023-04-01T14:30:26;22.15;;;4.60;;
58681;SDS011;44460;40.162;18.294;2023-04-01T14:33:05;20.40;;;4.60;;
58681;SDS011;44460;40.162;18.294;2023-04-01T14:35:41;15.27;;;4.55;;
58681;SDS011;44460;40.162;18.294;2023-04-01T14:38:35;19.75;;;4.82;;
58681;SDS011;44460;40.162;18.294;2023-04-01T14:44:17;19.23;;;5.30;;
58681;SDS011;44460;40.162;18.294;2023-04-01T14:47:04;15.93;;;4.53;;
58681;SDS011;44460;40.162;18.294;2023-04-01T14:49:39;17.60;;;4.88;;
58681;SDS011;44460;40.162;18.294;2023-04-01T14:52:11;15.63;;;4.78;;
58681;SDS011;44460;40.162;18.294;2023-04-01T14:54:40;16.48;;;4.82;;
58681;SDS011;44460;40.162;18.294;2023-04-01T14:59:32;17.63;;;5.10;;
58681;SDS011;44460;40.162;18.294;2023-04-01T15:02:02;19.48;;;4.45;;
58681;SDS011;44460;40.162;18.294;2023-04-01T15:04:50;18.15;;;4.80;;
58681;SDS011;44460;40.162;18.294;2023-04-01T15:09:47;27.60;;;11.50;;
58681;SDS011;44460;40.162;18.294;2023-04-01T15:12:29;64.70;;;40.22;;
58681;SDS011;44460;40.162;18.294;2023-04-01T15:15:16;151.35;;;84.88;;
58681;SDS011;44460;40.162;18.294;2023-04-01T15:28:41;24.10;;;7.32;;
58681;SDS011;44460;40.162;18.294;2023-04-01T15:39:13;14.40;;;4.30;;
58681;SDS011;44460;40.162;18.294;2023-04-01T15:46:56;18.30;;;5.65;;
58681;SDS011;44460;40.162;18.294;2023-04-01T16:02:28;21.50;;;7.47;;
58681;SDS011;44460;40.162;18.294;2023-04-01T16:05:00;21.90;;;7.05;;
58681;SDS011;44460;40.162;18.294;2023-04-01T16:07:41;20.33;;;6.07;;
58681;SDS011;44460;40.162;18.294;2023-04-01T16:13:17;19.65;;;5.38;;
58681;SDS011;44460;40.162;18.294;2023-04-01T16:15:51;21.83;;;5.47;;
58681;SDS011;44460;40.162;18.294;2023-04-01T16:20:55;15.18;;;4.97;;
58681;SDS011;44460;40.162;18.294;2023-04-01T16:25:57;25.55;;;5.85;;
58681;SDS011;44460;40.162;18.294;2023-04-01T16:28:31;23.88;;;6.22;;
58681;SDS011;44460;40.162;18.294;2023-04-01T16:30:59;25.65;;;6.28;;
58681;SDS011;44460;40.162;18.294;2023-04-01T16:33:40;20.15;;;5.50;;
58681;SDS011;44460;40.162;18.294;2023-04-01T16:38:40;20.05;;;6.07;;
58681;SDS011;44460;40.162;18.294;2023-04-01T16:41:10;18.48;;;5.72;;
58681;SDS011;44460;40.162;18.294;2023-04-01T16:43:50;20.20;;;6.85;;
58681;SDS011;44460;40.162;18.294;2023-04-01T16:51:20;21.25;;;5.30;;
58681;SDS011;44460;40.162;18.294;2023-04-01T16:56:40;21.17;;;5.72;;
58681;SDS011;44460;40.162;18.294;2023-04-01T16:59:13;18.02;;;6.55;;
58681;SDS011;44460;40.162;18.294;2023-04-01T17:01:44;20.15;;;5.75;;
58681;SDS011;44460;40.162;18.294;2023-04-01T17:19:42;23.67;;;7.95;;
58681;SDS011;44460;40.162;18.294;2023-04-01T17:22:45;19.73;;;8.05;;
58681;SDS011;44460;40.162;18.294;2023-04-01T17:25:08;17.73;;;6.40;;
58681;SDS011;44460;40.162;18.294;2023-04-01T17:27:48;20.98;;;6.45;;
58681;SDS011;44460;40.162;18.294;2023-04-01T17:30:53;19.20;;;6.75;;
58681;SDS011;44460;40.162;18.294;2023-04-01T17:33:23;22.02;;;7.53;;
58681;SDS011;44460;40.162;18.294;2023-04-01T17:36:09;18.67;;;5.80;;
58681;SDS011;44460;40.162;18.294;2023-04-01T17:51:36;18.35;;;6.38;;
58681;SDS011;44460;40.162;18.294;2023-04-01T18:02:03;19.30;;;7.40;;
58681;SDS011;44460;40.162;18.294;2023-04-01T18:17:25;23.98;;;7.55;;
58681;SDS011;44460;40.162;18.294;2023-04-01T18:25:04;21.57;;;7.07;;
58681;SDS011;44460;40.162;18.294;2023-04-01T18:28:22;21.67;;;7.85;;
58681;SDS011;44460;40.162;18.294;2023-04-01T18:30:28;21.02;;;7.72;;
58681;SDS011;44460;40.162;18.294;2023-04-01T18:38:05;18.83;;;7.10;;
58681;SDS011;44460;40.162;18.294;2023-04-01T18:40:38;25.65;;;7.30;;
58681;SDS011;44460;40.162;18.294;2023-04-01T18:48:06;24.38;;;9.75;;
58681;SDS011;44460;40.162;18.294;2023-04-01T18:50:37;26.88;;;10.57;;
58681;SDS011;44460;40.162;18.294;2023-04-01T19:03:33;24.30;;;10.23;;
58681;SDS011;44460;40.162;18.294;2023-04-01T19:06:00;28.33;;;10.07;;
58681;SDS011;44460;40.162;18.294;2023-04-01T19:08:33;29.33;;;13.23;;
58681;SDS011;44460;40.162;18.294;2023-04-01T19:11:07;29.42;;;12.65;;
58681;SDS011;44460;40.162;18.294;2023-04-01T19:13:53;33.85;;;14.00;;
58681;SDS011;44460;40.162;18.294;2023-04-01T19:21:26;22.85;;;9.07;;
58681;SDS011;44460;40.162;18.294;2023-04-01T19:31:58;33.58;;;9.75;;
58681;SDS011;44460;40.162;18.294;2023-04-01T19:37:39;20.17;;;7.80;;
58681;SDS011;44460;40.162;18.294;2023-04-01T19:52:40;18.83;;;5.38;;
58681;SDS011;44460;40.162;18.294;2023-04-01T20:00:47;22.77;;;7.50;;
58681;SDS011;44460;40.162;18.294;2023-04-01T20:10:51;22.20;;;6.97;;
58681;SDS011;44460;40.162;18.294;2023-04-01T20:13:21;22.50;;;7.63;;
58681;SDS011;44460;40.162;18.294;2023-04-01T20:15:58;25.58;;;10.07;;
58681;SDS011;44460;40.162;18.294;2023-04-01T20:18:25;24.88;;;10.02;;
58681;SDS011;44460;40.162;18.294;2023-04-01T20:20:57;30.50;;;11.05;;
58681;SDS011;44460;40.162;18.294;2023-04-01T20:23:30;24.58;;;8.05;;
58681;SDS011;44460;40.162;18.294;2023-04-01T20:26:01;26.02;;;7.55;;
58681;SDS011;44460;40.162;18.294;2023-04-01T20:28:44;21.10;;;6.43;;
58681;SDS011;44460;40.162;18.294;2023-04-01T20:36:46;20.67;;;6.43;;
58681;SDS011;44460;40.162;18.294;2023-04-01T20:46:56;17.83;;;4.65;;
58681;SDS011;44460;40.162;18.294;2023-04-01T20:54:44;23.83;;;5.57;;
58681;SDS011;44460;40.162;18.294;2023-04-01T20:57:24;18.98;;;4.90;;
58681;SDS011;44460;40.162;18.294;2023-04-01T21:05:18;19.73;;;4.88;;
58681;SDS011;44460;40.162;18.294;2023-04-01T21:07:55;21.35;;;5.20;;
58681;SDS011;44460;40.162;18.294;2023-04-01T21:13:20;20.45;;;5.88;;
58681;SDS011;44460;40.162;18.294;2023-04-01T21:15:48;23.90;;;6.18;;
58681;SDS011;44460;40.162;18.294;2023-04-01T21:25:55;29.10;;;5.70;;
58681;SDS011;44460;40.162;18.294;2023-04-01T21:33:32;27.27;;;6.22;;
58681;SDS011;44460;40.162;18.294;2023-04-01T21:41:12;27.73;;;5.70;;
58681;SDS011;44460;40.162;18.294;2023-04-01T21:43:44;21.55;;;5.30;;
58681;SDS011;44460;40.162;18.294;2023-04-01T21:54:19;25.52;;;4.95;;
58681;SDS011;44460;40.162;18.294;2023-04-01T22:07:48;21.92;;;5.82;;
58681;SDS011;44460;40.162;18.294;2023-04-01T22:10:30;25.55;;;5.10;;
58681;SDS011;44460;40.162;18.294;2023-04-01T22:13:09;17.85;;;5.03;;
58681;SDS011;44460;40.162;18.294;2023-04-01T22:18:09;27.27;;;4.82;;
58681;SDS011;44460;40.162;18.294;2023-04-01T22:20:40;22.17;;;5.38;;
58681;SDS011;44460;40.162;18.294;2023-04-01T22:23:14;26.77;;;5.32;;
58681;SDS011;44460;40.162;18.294;2023-04-01T22:28:12;28.60;;;5.15;;
58681;SDS011;44460;40.162;18.294;2023-04-01T22:30:51;24.98;;;4.35;;
58681;SDS011;44460;40.162;18.294;2023-04-01T22:34:00;24.85;;;4.45;;
58681;SDS011;44460;40.162;18.294;2023-04-01T22:36:10;18.38;;;3.83;;
58681;SDS011;44460;40.162;18.294;2023-04-01T22:41:42;29.92;;;4.30;;
58681;SDS011;44460;40.162;18.294;2023-04-01T22:44:15;23.95;;;4.90;;
58681;SDS011;44460;40.162;18.294;2023-04-01T22:52:32;20.13;;;3.97;;
58681;SDS011;44460;40.162;18.294;2023-04-01T22:55:00;31.38;;;4.32;;
58681;SDS011;44460;40.162;18.294;2023-04-01T22:57:46;25.35;;;4.70;;
58681;SDS011;44460;40.162;18.294;2023-04-01T23:00:14;26.30;;;4.63;;
58681;SDS011;44460;40.162;18.294;2023-04-01T23:03:25;18.30;;;4.55;;
58681;SDS011;44460;40.162;18.294;2023-04-01T23:05:30;18.67;;;3.95;;
58681;SDS011;44460;40.162;18.294;2023-04-01T23:13:05;25.92;;;4.57;;
58681;SDS011;44460;40.162;18.294;2023-04-01T23:15:35;26.23;;;3.63;;
58681;SDS011;44460;40.162;18.294;2023-04-01T23:18:06;19.38;;;3.70;;
58681;SDS011;44460;40.162;18.294;2023-04-01T23:25:35;19.15;;;3.60;;
58681;SDS011;44460;40.162;18.294;2023-04-01T23:33:26;25.65;;;4.30;;
58681;SDS011;44460;40.162;18.294;2023-04-01T23:38:19;22.98;;;5.63;;
58681;SDS011;44460;40.162;18.294;2023-04-01T23:40:47;23.55;;;4.38;;
58681;SDS011;44460;40.162;18.294;2023-04-01T23:43:14;30.02;;;6.15;;
58681;SDS011;44460;40.162;18.294;2023-04-01T23:45:43;23.00;;;5.18;;
58681;SDS011;44460;40.162;18.294;2023-04-01T23:48:11;28.17;;;5.30;;
58681;SDS011;44460;40.162;18.294;2023-04-01T23:50:39;25.33;;;5.20;;
58681;SDS011;44460;40.162;18.294;2023-04-01T23:53:11;27.30;;;4.50;;
58681;SDS011;44460;40.162;18.294;2023-04-01T23:55:40;25.40;;;5.32;;
